Time;durP1;ratioP1;P1;durP2;ratioP2;P2;SDS_P1;SDS_P2;PMS_P1;PMS_P2;Temp;Humidity;BMP_temperature;BMP_pressure;BME280_temperature;BME280_humidity;BME280_pressure;Samples;Min_cycle;Max_cycle;Signal;HPM_P1;HPM_P2
2021/08/29 00:01:08;;;;;;;7.67;6.47;;;17.00;99.90;;;;;;5093566;28;20197;-64
2021/08/29 00:03:33;;;;;;;10.17;7.00;;;17.00;99.90;;;;;;5093692;28;20664;-65
2021/08/29 00:05:59;;;;;;;7.50;6.70;;;17.00;99.90;;;;;;5093575;28;20247;-65
2021/08/29 00:08:25;;;;;;;9.07;8.00;;;17.00;99.90;;;;;;5093649;28;20173;-65
2021/08/29 00:10:50;;;;;;;7.77;6.83;;;17.00;99.90;;;;;;5093406;28;20794;-66
2021/08/29 00:13:16;;;;;;;7.27;6.47;;;17.00;99.90;;;;;;5126414;28;20673;-64
2021/08/29 00:15:42;;;;;;;9.50;8.17;;;17.00;99.90;;;;;;5093370;28;20318;-64
2021/08/29 00:18:07;;;;;;;9.00;7.40;;;17.00;99.90;;;;;;5093484;28;20176;-65
2021/08/29 00:20:33;;;;;;;7.57;6.80;;;17.00;99.90;;;;;;5093412;28;20241;-66
2021/08/29 00:22:58;;;;;;;7.53;6.83;;;17.00;99.90;;;;;;5093035;28;20230;-65
2021/08/29 00:25:24;;;;;;;8.03;7.23;;;17.00;99.90;;;;;;5097212;28;20194;-64
2021/08/29 00:27:49;;;;;;;8.37;7.27;;;17.00;99.90;;;;;;5097075;28;20228;-64
2021/08/29 00:30:15;;;;;;;9.07;6.93;;;17.00;99.90;;;;;;5097274;28;20184;-64
2021/08/29 00:32:41;;;;;;;6.67;6.07;;;17.00;99.90;;;;;;5097955;28;20230;-65
2021/08/29 00:35:07;;;;;;;9.80;8.27;;;17.00;99.90;;;;;;5097210;28;20611;-65
2021/08/29 00:37:33;;;;;;;11.03;7.97;;;17.00;99.90;;;;;;5097664;28;20427;-65
2021/08/29 00:42:46;;;;;;;7.90;7.10;;;17.10;99.90;;;;;;5097325;28;20194;-64
2021/08/29 00:45:12;;;;;;;10.60;7.93;;;17.10;99.90;;;;;;5096861;28;20983;-65
2021/08/29 00:47:38;;;;;;;8.63;7.47;;;17.10;99.90;;;;;;5097512;28;20425;-65
2021/08/29 00:50:05;;;;;;;10.00;7.60;;;17.10;99.90;;;;;;5096882;28;20662;-65
2021/08/29 00:52:33;;;;;;;8.83;7.77;;;17.10;99.90;;;;;;5095470;28;20431;-65
2021/08/29 00:54:59;;;;;;;8.90;8.00;;;17.10;99.90;;;;;;5096806;28;20438;-64
2021/08/29 00:57:25;;;;;;;8.57;7.67;;;17.10;99.90;;;;;;5097169;28;20523;-64
2021/08/29 00:59:51;;;;;;;11.17;7.80;;;17.10;99.90;;;;;;5096601;28;20504;-67
2021/08/29 01:02:23;;;;;;;11.73;8.60;;;17.10;99.90;;;;;;5097050;28;20192;-65
2021/08/29 01:05:11;;;;;;;7.73;6.93;;;17.10;99.90;;;;;;5096730;28;20490;-65
2021/08/29 01:07:46;;;;;;;8.73;7.00;;;17.10;99.90;;;;;;5097158;28;20535;-65
2021/08/29 01:10:19;;;;;;;11.60;8.47;;;17.10;99.90;;;;;;5096457;28;20408;-65
2021/08/29 01:12:47;;;;;;;7.90;7.10;;;17.10;99.90;;;;;;5095589;28;20433;-65
2021/08/29 01:15:14;;;;;;;8.63;7.13;;;17.10;99.90;;;;;;5095096;28;20408;-64
2021/08/29 01:17:44;;;;;;;8.60;7.67;;;17.10;99.90;;;;;;5096924;28;20448;-64
2021/08/29 01:20:38;;;;;;;9.03;7.60;;;17.10;99.90;;;;;;5096297;28;20937;-64
2021/08/29 01:23:07;;;;;;;9.37;6.60;;;17.10;99.90;;;;;;5096414;28;20406;-65
2021/08/29 01:25:38;;;;;;;9.20;8.30;;;17.10;99.90;;;;;;5096065;28;20445;-64
2021/08/29 01:28:12;;;;;;;8.60;7.70;;;17.10;99.90;;;;;;5094812;28;21048;-64
2021/08/29 01:30:38;;;;;;;8.87;7.30;;;17.10;99.90;;;;;;5096215;28;20930;-65
2021/08/29 01:33:07;;;;;;;8.73;6.97;;;17.10;99.90;;;;;;5129066;27;20405;-65
2021/08/29 01:35:33;;;;;;;8.73;7.67;;;17.10;99.90;;;;;;5094813;28;20199;-64
2021/08/29 01:38:00;;;;;;;8.80;7.40;;;17.10;99.90;;;;;;5096018;28;20441;-66
2021/08/29 01:40:26;;;;;;;10.13;6.43;;;17.10;99.90;;;;;;5095964;28;20433;-64
2021/08/29 01:42:52;;;;;;;8.33;7.43;;;17.10;99.90;;;;;;5096498;28;20777;-64
2021/08/29 01:45:18;;;;;;;8.60;7.07;;;17.20;99.90;;;;;;5095691;28;20185;-64
2021/08/29 01:47:44;;;;;;;10.43;8.07;;;17.20;99.90;;;;;;5095828;28;20425;-65
2021/08/29 01:50:10;;;;;;;8.23;6.70;;;17.10;99.90;;;;;;5095746;28;20785;-65
2021/08/29 01:52:35;;;;;;;6.93;6.23;;;17.20;99.90;;;;;;5096174;28;20676;-64
2021/08/29 01:55:01;;;;;;;10.30;7.40;;;17.20;99.90;;;;;;5095643;28;20930;-64
2021/08/29 01:57:27;;;;;;;9.00;7.20;;;17.20;99.90;;;;;;5096101;28;20206;-65
2021/08/29 01:59:52;;;;;;;9.80;7.30;;;17.20;99.90;;;;;;5094322;28;20245;-65
2021/08/29 02:02:19;;;;;;;8.53;7.33;;;17.20;99.90;;;;;;5094443;28;20193;-64
2021/08/29 02:04:45;;;;;;;9.40;7.40;;;17.20;99.90;;;;;;5095476;28;20193;-65
2021/08/29 02:07:28;;;;;;;8.00;7.27;;;17.20;99.90;;;;;;5095695;28;20837;-64
2021/08/29 02:10:07;;;;;;;7.73;6.97;;;17.20;99.90;;;;;;5095400;28;20456;-65
2021/08/29 02:12:52;;;;;;;8.47;7.67;;;17.20;99.90;;;;;;5094386;28;20424;-66
2021/08/29 02:15:26;;;;;;;8.20;6.80;;;17.20;99.90;;;;;;5095312;28;20436;-64
2021/08/29 02:17:52;;;;;;;9.03;6.47;;;17.10;99.90;;;;;;5095797;28;20421;-64
2021/08/29 02:20:23;;;;;;;11.63;7.07;;;17.20;99.90;;;;;;5095146;28;20429;-64
2021/08/29 02:22:51;;;;;;;8.87;7.00;;;17.10;99.90;;;;;;5095687;28;20408;-66
2021/08/29 02:25:16;;;;;;;9.23;7.43;;;17.10;99.90;;;;;;5094942;28;20433;-64
2021/08/29 02:27:43;;;;;;;7.90;6.73;;;17.10;99.90;;;;;;5095106;28;20494;-65
2021/08/29 02:30:09;;;;;;;7.43;6.63;;;17.10;99.90;;;;;;5093657;28;20286;-64
2021/08/29 02:32:40;;;;;;;7.40;6.63;;;17.10;99.90;;;;;;5095531;28;20733;-64
2021/08/29 02:35:07;;;;;;;7.13;6.40;;;17.10;99.90;;;;;;5094898;28;20930;-65
2021/08/29 02:37:33;;;;;;;8.67;7.40;;;17.10;99.90;;;;;;5095308;28;20427;-65
2021/08/29 02:40:00;;;;;;;9.33;6.97;;;17.10;99.90;;;;;;5094716;28;20429;-65
2021/08/29 02:42:28;;;;;;;7.83;7.03;;;17.10;99.90;;;;;;5093696;28;20429;-64
2021/08/29 02:44:54;;;;;;;8.10;7.30;;;17.00;99.90;;;;;;5093403;28;20458;-65
2021/08/29 02:47:20;;;;;;;8.20;7.10;;;17.00;99.90;;;;;;5094781;28;20480;-65
2021/08/29 02:49:48;;;;;;;7.87;7.07;;;17.00;99.90;;;;;;5093368;28;20843;-65
2021/08/29 02:52:17;;;;;;;9.10;7.50;;;17.00;99.90;;;;;;5093534;28;20493;-67
2021/08/29 02:54:45;;;;;;;9.00;7.17;;;16.90;99.90;;;;;;5094708;28;20472;-65
2021/08/29 02:57:13;;;;;;;9.53;7.63;;;16.90;99.90;;;;;;5094936;28;20415;-65
2021/08/29 02:59:39;;;;;;;8.43;7.30;;;16.90;99.90;;;;;;5094519;28;20428;-65
2021/08/29 03:02:11;;;;;;;9.77;7.33;;;16.90;99.90;;;;;;5093257;28;20830;-65
2021/08/29 03:04:37;;;;;;;7.63;6.83;;;16.90;99.90;;;;;;5094314;28;20942;-65
2021/08/29 03:07:04;;;;;;;8.43;7.53;;;16.90;99.90;;;;;;5094665;28;20469;-65
2021/08/29 03:09:35;;;;;;;7.80;7.00;;;16.90;99.90;;;;;;5094272;28;20432;-65
2021/08/29 03:12:08;;;;;;;8.03;7.23;;;16.90;99.90;;;;;;5094661;28;20494;-65
2021/08/29 03:14:36;;;;;;;7.87;6.97;;;16.90;99.90;;;;;;5094235;28;20417;-66
2021/08/29 03:17:03;;;;;;;8.03;7.30;;;16.90;99.90;;;;;;5092900;28;20948;-65
2021/08/29 03:19:29;;;;;;;8.77;6.57;;;16.90;99.90;;;;;;5094112;28;20397;-65
2021/08/29 03:21:55;;;;;;;7.97;7.10;;;16.90;99.90;;;;;;5094407;28;20409;-65
2021/08/29 03:24:21;;;;;;;7.20;6.50;;;16.90;99.90;;;;;;5093940;28;20413;-64
2021/08/29 03:26:47;;;;;;;7.83;6.43;;;16.90;99.90;;;;;;5093857;28;20493;-65
2021/08/29 03:29:13;;;;;;;9.27;7.10;;;16.90;99.90;;;;;;5093989;28;20446;-65
2021/08/29 03:31:40;;;;;;;7.47;6.30;;;16.90;99.90;;;;;;5093076;28;20464;-65
2021/08/29 03:34:07;;;;;;;7.67;6.87;;;16.90;99.90;;;;;;5093956;28;20747;-66
2021/08/29 03:36:34;;;;;;;7.83;6.87;;;16.90;99.90;;;;;;5094042;28;20279;-64
2021/08/29 03:39:00;;;;;;;10.00;8.10;;;16.90;99.90;;;;;;5093858;28;20414;-66
2021/08/29 03:41:29;;;;;;;7.20;6.50;;;16.90;99.90;;;;;;5093786;28;20452;-65
2021/08/29 03:43:55;;;;;;;9.33;6.73;;;16.90;99.90;;;;;;5093868;28;20770;-66
2021/08/29 03:46:22;;;;;;;9.37;7.80;;;16.90;99.90;;;;;;5093825;28;20498;-65
2021/08/29 03:48:47;;;;;;;6.93;6.10;;;16.90;99.90;;;;;;5092552;28;20459;-66
2021/08/29 03:51:15;;;;;;;9.57;7.43;;;16.90;99.90;;;;;;5092423;28;20864;-65
2021/08/29 03:53:41;;;;;;;8.10;7.00;;;16.90;99.90;;;;;;5093782;28;20664;-66
2021/08/29 03:56:07;;;;;;;8.80;7.90;;;16.80;99.90;;;;;;5093562;28;20446;-64
2021/08/29 03:58:35;;;;;;;11.67;6.90;;;16.80;99.90;;;;;;5095664;28;20420;-66
2021/08/29 04:01:01;;;;;;;7.37;6.60;;;16.80;99.90;;;;;;5096599;28;20819;-65
2021/08/29 04:03:27;;;;;;;7.80;7.00;;;16.80;99.90;;;;;;5096540;28;20420;-66
2021/08/29 04:05:54;;;;;;;8.70;6.57;;;16.80;99.90;;;;;;5097751;28;20468;-65
2021/08/29 04:08:26;;;;;;;7.20;6.50;;;16.80;99.90;;;;;;5096786;28;20420;-66
2021/08/29 04:10:54;;;;;;;8.27;7.37;;;16.80;99.90;;;;;;5097670;28;20510;-64
2021/08/29 04:13:20;;;;;;;12.83;6.90;;;16.70;99.90;;;;;;5097721;28;20782;-65
2021/08/29 04:15:47;;;;;;;7.00;6.30;;;16.70;99.90;;;;;;5097525;28;20811;-65
2021/08/29 04:18:15;;;;;;;7.97;6.90;;;16.70;99.90;;;;;;5096295;28;20508;-65
2021/08/29 04:20:40;;;;;;;8.93;6.90;;;16.70;99.90;;;;;;5097537;28;21007;-66
2021/08/29 04:23:06;;;;;;;11.50;6.80;;;16.70;99.90;;;;;;5097395;28;20433;-66
2021/08/29 04:25:32;;;;;;;9.67;7.60;;;16.70;99.90;;;;;;5097273;28;20223;-64
2021/08/29 04:27:58;;;;;;;8.40;6.90;;;16.70;99.90;;;;;;5097431;28;20456;-65
2021/08/29 04:30:24;;;;;;;8.03;7.23;;;16.70;99.90;;;;;;5097303;28;20429;-65
2021/08/29 04:32:53;;;;;;;8.70;7.60;;;16.70;99.90;;;;;;5097854;28;20196;-65
2021/08/29 04:35:18;;;;;;;8.50;6.67;;;16.70;99.90;;;;;;5097215;28;20507;-65
2021/08/29 04:37:44;;;;;;;7.90;7.10;;;16.70;99.90;;;;;;5097133;28;20408;-65
2021/08/29 04:40:10;;;;;;;9.53;7.90;;;16.70;99.90;;;;;;5097127;28;20235;-65
2021/08/29 04:42:35;;;;;;;10.03;7.13;;;16.70;99.90;;;;;;5096037;28;20527;-66
2021/08/29 04:45:01;;;;;;;9.60;7.23;;;16.70;99.90;;;;;;5097043;28;20200;-66
2021/08/29 04:47:27;;;;;;;6.57;5.87;;;16.60;99.90;;;;;;5097369;28;20568;-65
2021/08/29 04:49:52;;;;;;;7.83;7.03;;;16.70;99.90;;;;;;5095642;28;20536;-65
2021/08/29 04:52:18;;;;;;;8.40;7.13;;;16.70;99.90;;;;;;5097365;28;20241;-65
2021/08/29 04:54:44;;;;;;;9.77;7.57;;;16.60;99.90;;;;;;5096913;28;20200;-65
2021/08/29 04:57:09;;;;;;;8.23;7.37;;;16.60;99.90;;;;;;5097153;28;20202;-65
2021/08/29 04:59:35;;;;;;;8.17;7.00;;;16.60;99.90;;;;;;5096801;28;20253;-65
2021/08/29 05:02:00;;;;;;;7.80;6.60;;;16.60;99.90;;;;;;5095398;28;20176;-65
2021/08/29 05:04:26;;;;;;;8.80;6.97;;;16.50;99.90;;;;;;5096671;28;20700;-64
2021/08/29 05:06:51;;;;;;;8.80;6.97;;;16.50;99.90;;;;;;5095377;28;20618;-66
2021/08/29 05:09:17;;;;;;;7.93;7.13;;;16.50;99.90;;;;;;5096444;28;20673;-65
2021/08/29 05:11:42;;;;;;;8.50;7.10;;;16.50;99.90;;;;;;5096859;28;20646;-65
2021/08/29 05:14:08;;;;;;;7.67;6.90;;;16.50;99.90;;;;;;5096570;28;20168;-64
2021/08/29 05:16:34;;;;;;;8.90;6.80;;;16.50;99.90;;;;;;5096635;28;20200;-65
2021/08/29 05:18:59;;;;;;;9.47;7.90;;;16.50;99.90;;;;;;5096519;28;20202;-65
2021/08/29 05:21:25;;;;;;;9.27;7.70;;;16.50;99.90;;;;;;5096499;28;20200;-65
2021/08/29 05:23:50;;;;;;;10.50;7.40;;;16.50;99.90;;;;;;5096370;28;20212;-65
2021/08/29 05:26:16;;;;;;;9.10;7.37;;;16.50;99.90;;;;;;5095964;28;20331;-65
2021/08/29 05:28:42;;;;;;;8.63;7.00;;;16.50;99.90;;;;;;5095054;28;20168;-64
2021/08/29 05:31:07;;;;;;;9.90;7.87;;;16.50;99.90;;;;;;5096208;28;20204;-65
2021/08/29 05:33:33;;;;;;;8.70;7.67;;;16.50;99.90;;;;;;5094871;28;20172;-65
2021/08/29 05:35:58;;;;;;;8.97;7.93;;;16.60;99.90;;;;;;5096149;28;20275;-64
2021/08/29 05:38:24;;;;;;;9.70;8.07;;;16.60;99.90;;;;;;5096402;28;20173;-65
2021/08/29 05:40:49;;;;;;;10.10;8.03;;;16.70;99.90;;;;;;5095999;28;20204;-66
2021/08/29 05:43:15;;;;;;;10.07;8.47;;;16.70;99.90;;;;;;5128782;27;20210;-66
2021/08/29 05:45:40;;;;;;;9.53;7.80;;;16.70;99.90;;;;;;5095721;28;20580;-65
2021/08/29 05:48:06;;;;;;;12.57;7.87;;;16.70;99.90;;;;;;5094578;28;20173;-65
2021/08/29 05:50:32;;;;;;;8.30;7.17;;;16.80;99.90;;;;;;5094509;28;20199;-66
2021/08/29 05:52:57;;;;;;;9.93;8.43;;;16.80;99.90;;;;;;5095828;28;20536;-66
2021/08/29 05:55:23;;;;;;;10.20;8.00;;;16.90;99.90;;;;;;5095772;28;20188;-65
2021/08/29 05:57:48;;;;;;;9.10;7.33;;;16.90;99.90;;;;;;5096127;28;20181;-66
2021/08/29 06:00:14;;;;;;;12.47;9.00;;;17.00;99.90;;;;;;5095566;28;20188;-66
2021/08/29 06:02:40;;;;;;;9.50;7.63;;;17.00;99.90;;;;;;5096081;28;20184;-66
2021/08/29 06:05:06;;;;;;;10.57;8.00;;;17.10;99.90;;;;;;5095398;28;20966;-65
2021/08/29 06:07:31;;;;;;;10.57;8.17;;;17.10;99.90;;;;;;5096049;28;20625;-66
2021/08/29 06:09:57;;;;;;;11.60;9.10;;;17.10;99.90;;;;;;5095391;28;20885;-65
2021/08/29 06:12:22;;;;;;;11.03;9.93;;;17.20;99.90;;;;;;5095801;28;20267;-65
2021/08/29 06:14:48;;;;;;;10.00;8.53;;;17.20;99.90;;;;;;5095317;28;20197;-65
2021/08/29 06:17:14;;;;;;;9.80;8.77;;;17.30;99.90;;;;;;5094027;28;20180;-65
2021/08/29 06:19:39;;;;;;;10.60;7.80;;;17.30;99.90;;;;;;5095273;28;20253;-67
2021/08/29 06:22:05;;;;;;;10.90;8.03;;;17.40;99.90;;;;;;5094871;28;20199;-65
2021/08/29 06:24:30;;;;;;;10.23;7.57;;;17.40;99.90;;;;;;5094718;28;20239;-67
2021/08/29 06:26:56;;;;;;;10.10;8.13;;;17.40;99.90;;;;;;5094710;28;20697;-65
2021/08/29 06:29:22;;;;;;;8.80;7.43;;;17.50;99.90;;;;;;5094064;28;20540;-65
2021/08/29 06:31:47;;;;;;;11.40;7.80;;;17.50;99.90;;;;;;5095297;28;20185;-65
2021/08/29 06:34:13;;;;;;;9.07;7.80;;;17.60;99.90;;;;;;5094896;28;20171;-65
2021/08/29 06:36:38;;;;;;;12.70;8.20;;;17.70;99.90;;;;;;5092278;28;20212;-65
2021/08/29 06:39:04;;;;;;;10.47;7.83;;;17.70;99.90;;;;;;5094871;28;20204;-65
2021/08/29 06:41:30;;;;;;;11.70;7.63;;;17.80;99.90;;;;;;5094921;28;20195;-67
2021/08/29 06:43:57;;;;;;;12.20;8.83;;;17.90;99.90;;;;;;5094764;28;20178;-65
2021/08/29 06:46:23;;;;;;;11.93;8.50;;;18.00;99.90;;;;;;5094692;28;20231;-65
2021/08/29 06:48:48;;;;;;;12.73;8.40;;;18.00;99.90;;;;;;5094715;28;20424;-65
2021/08/29 06:51:14;;;;;;;10.80;7.83;;;18.10;99.90;;;;;;5094498;28;20469;-65
2021/08/29 06:53:40;;;;;;;8.00;7.20;;;18.20;99.90;;;;;;5093420;28;20172;-66
2021/08/29 06:56:05;;;;;;;8.60;7.50;;;18.20;99.90;;;;;;5094632;28;20275;-65
2021/08/29 06:58:31;;;;;;;7.63;6.60;;;18.30;99.90;;;;;;5094596;28;20172;-66
2021/08/29 07:00:57;;;;;;;8.30;7.23;;;18.30;99.90;;;;;;5094507;28;20200;-65
2021/08/29 07:03:22;;;;;;;8.63;6.63;;;18.40;99.90;;;;;;5094457;28;20547;-65
2021/08/29 07:05:48;;;;;;;10.23;7.30;;;18.50;99.90;;;;;;5094389;28;20312;-66
2021/08/29 07:08:13;;;;;;;7.83;7.03;;;18.50;99.90;;;;;;5094345;28;20173;-66
2021/08/29 07:10:39;;;;;;;7.13;6.00;;;18.60;99.90;;;;;;5094274;28;20279;-64
2021/08/29 07:13:04;;;;;;;9.77;7.97;;;18.70;99.90;;;;;;5092926;28;20213;-65
2021/08/29 07:15:30;;;;;;;8.17;7.37;;;18.80;99.90;;;;;;5094054;28;20218;-65
2021/08/29 07:17:56;;;;;;;7.23;6.50;;;18.80;99.90;;;;;;5094187;28;20540;-66
2021/08/29 07:20:22;;;;;;;8.13;7.13;;;18.90;99.90;;;;;;5094068;28;20193;-66
2021/08/29 07:22:47;;;;;;;11.50;6.90;;;18.90;99.90;;;;;;5093050;28;20425;-65
2021/08/29 07:25:13;;;;;;;7.73;7.03;;;19.00;99.90;;;;;;5093991;28;20723;-65
2021/08/29 07:27:38;;;;;;;6.43;5.83;;;19.10;99.90;;;;;;5092717;28;20587;-65
2021/08/29 07:30:04;;;;;;;8.00;6.53;;;19.20;99.90;;;;;;5092628;28;20189;-65
2021/08/29 07:32:30;;;;;;;7.13;6.33;;;19.20;99.90;;;;;;5091789;28;20184;-65
2021/08/29 07:34:55;;;;;;;8.70;7.60;;;19.30;99.90;;;;;;5093797;28;20949;-65
2021/08/29 07:37:22;;;;;;;8.40;7.60;;;19.40;99.90;;;;;;5094211;28;20737;-65
2021/08/29 07:39:49;;;;;;;8.43;6.73;;;19.50;99.90;;;;;;5092537;28;20230;-65
2021/08/29 07:42:15;;;;;;;9.33;6.67;;;19.50;99.90;;;;;;5094272;28;20454;-65
2021/08/29 07:44:40;;;;;;;7.40;6.47;;;19.70;99.90;;;;;;5093933;28;20461;-65
2021/08/29 07:47:06;;;;;;;8.93;7.27;;;19.70;99.90;;;;;;5093743;28;20509;-65
2021/08/29 07:49:32;;;;;;;10.23;7.00;;;19.80;99.90;;;;;;5093866;28;20238;-65
2021/08/29 07:51:57;;;;;;;6.90;6.30;;;19.90;99.90;;;;;;5092649;28;20236;-65
2021/08/29 07:54:23;;;;;;;6.30;5.70;;;20.00;99.90;;;;;;5093780;28;20250;-66
2021/08/29 07:56:48;;;;;;;6.70;6.03;;;20.10;99.90;;;;;;5094193;28;20535;-66
2021/08/29 07:59:14;;;;;;;7.17;5.90;;;20.20;99.90;;;;;;5093655;28;20254;-65
2021/08/29 08:01:40;;;;;;;7.43;6.70;;;20.20;99.90;;;;;;5093976;28;20176;-65
2021/08/29 08:04:05;;;;;;;8.13;5.60;;;20.30;99.90;;;;;;5092281;28;20226;-65
2021/08/29 08:06:31;;;;;;;6.97;6.37;;;20.40;99.90;;;;;;5093599;28;20228;-66
2021/08/29 08:08:57;;;;;;;6.80;6.00;;;20.50;99.90;;;;;;5093599;28;20598;-65
2021/08/29 08:11:23;;;;;;;6.47;5.87;;;20.50;99.90;;;;;;5092325;28;20453;-65
2021/08/29 08:13:49;;;;;;;8.77;6.43;;;20.70;99.90;;;;;;5093727;28;20254;-66
2021/08/29 08:16:14;;;;;;;7.03;6.33;;;20.80;99.90;;;;;;5102036;28;20544;-65
2021/08/29 08:18:40;;;;;;;6.30;5.70;;;20.90;99.90;;;;;;5112044;28;20172;-66
2021/08/29 08:21:06;;;;;;;6.77;6.07;;;21.00;99.90;;;;;;5110457;28;20203;-66
2021/08/29 08:23:31;;;;;;;7.07;6.30;;;21.10;99.90;;;;;;5146937;27;20172;-65
2021/08/29 08:25:57;;;;;;;6.27;5.53;;;21.20;99.90;;;;;;5113696;28;20222;-65
2021/08/29 08:28:22;;;;;;;6.23;5.63;;;21.20;99.90;;;;;;5113732;28;20171;-65
2021/08/29 08:30:48;;;;;;;6.43;5.10;;;21.30;99.90;;;;;;5113705;28;20657;-66
2021/08/29 08:33:13;;;;;;;5.73;4.40;;;21.40;99.90;;;;;;5113610;28;20190;-67
2021/08/29 08:35:40;;;;;;;6.37;4.80;;;21.50;99.90;;;;;;5113719;28;20286;-65
2021/08/29 08:38:05;;;;;;;6.67;5.20;;;21.50;99.90;;;;;;5111919;28;20164;-66
2021/08/29 08:40:40;;;;;;;4.93;4.43;;;21.60;99.90;;;;;;5110059;28;20470;-66
2021/08/29 08:43:06;;;;;;;4.70;4.30;;;21.70;99.90;;;;;;5110625;28;20203;-65
2021/08/29 08:45:32;;;;;;;5.40;4.70;;;21.80;99.90;;;;;;5115108;28;20903;-65
2021/08/29 08:48:03;;;;;;;4.83;4.37;;;21.90;99.90;;;;;;5115781;28;20172;-66
2021/08/29 08:50:35;;;;;;;4.30;3.90;;;22.20;99.90;;;;;;5114383;28;20435;-65
2021/08/29 08:53:03;;;;;;;4.07;3.47;;;22.80;99.90;;;;;;5115038;28;20435;-65
2021/08/29 08:55:30;;;;;;;5.60;4.97;;;23.40;99.90;;;;;;5117212;28;20917;-66
2021/08/29 08:57:56;;;;;;;4.33;3.93;;;24.00;99.90;;;;;;5115878;28;20473;-65
2021/08/29 09:00:24;;;;;;;5.70;4.47;;;24.50;99.90;;;;;;5117072;28;20484;-66
2021/08/29 09:02:50;;;;;;;5.60;4.20;;;24.80;99.90;;;;;;5115824;28;20423;-66
2021/08/29 09:05:15;;;;;;;3.93;3.63;;;24.90;99.90;;;;;;5117055;28;20483;-65
2021/08/29 09:07:41;;;;;;;4.60;4.20;;;24.70;99.90;;;;;;5117600;28;20215;-66
2021/08/29 09:10:07;;;;;;;4.13;3.73;;;24.60;99.90;;;;;;5116947;28;20676;-66
2021/08/29 09:12:33;;;;;;;5.57;4.03;;;24.40;99.90;;;;;;5117519;28;20263;-65
2021/08/29 09:14:58;;;;;;;3.93;3.50;;;24.20;99.90;;;;;;5116863;28;20452;-66
2021/08/29 09:17:24;;;;;;;5.23;4.70;;;24.10;99.90;;;;;;5115765;28;20180;-65
2021/08/29 09:19:50;;;;;;;3.63;3.33;;;24.00;99.90;;;;;;5116759;28;20271;-66
2021/08/29 09:22:25;;;;;;;5.30;3.60;;;23.90;99.90;;;;;;5117111;28;20176;-65
2021/08/29 09:24:51;;;;;;;3.53;3.23;;;23.80;99.90;;;;;;5116787;28;20412;-65
2021/08/29 09:27:21;;;;;;;4.20;3.40;;;23.80;99.90;;;;;;5116574;28;20620;-65
2021/08/29 09:29:49;;;;;;;3.67;3.37;;;23.70;99.90;;;;;;5115425;28;20433;-66
2021/08/29 09:32:19;;;;;;;4.77;4.27;;;23.60;99.90;;;;;;5117041;28;20425;-65
2021/08/29 09:34:59;;;;;;;4.83;4.33;;;23.50;99.90;;;;;;5116472;28;20427;-66
2021/08/29 09:37:24;;;;;;;3.80;3.50;;;23.50;99.90;;;;;;5117162;28;20420;-65
2021/08/29 09:39:50;;;;;;;4.07;3.77;;;23.40;99.90;;;;;;5116574;28;20415;-66
2021/08/29 09:42:16;;;;;;;2.80;2.60;;;23.40;99.90;;;;;;5116838;28;20206;-66
2021/08/29 09:44:42;;;;;;;3.33;2.90;;;23.30;99.90;;;;;;5116334;28;20251;-65
2021/08/29 09:47:12;;;;;;;2.40;2.20;;;23.20;99.90;;;;;;5116659;28;20366;-65
2021/08/29 09:49:38;;;;;;;2.23;2.13;;;23.20;99.90;;;;;;5116417;28;20192;-66
2021/08/29 09:52:07;;;;;;;2.13;2.03;;;23.10;99.90;;;;;;5114842;28;20447;-65
2021/08/29 09:54:42;;;;;;;3.60;3.30;;;23.00;99.90;;;;;;5116084;28;20424;-65
2021/08/29 09:57:10;;;;;;;3.10;2.77;;;22.90;99.90;;;;;;5115454;28;20427;-66
2021/08/29 09:59:44;;;;;;;3.47;3.17;;;22.80;99.90;;;;;;5116059;28;20526;-66
2021/08/29 10:02:11;;;;;;;3.03;2.73;;;22.80;99.90;;;;;;5116287;28;20768;-66
2021/08/29 10:04:37;;;;;;;3.20;2.90;;;22.80;99.90;;;;;;5115915;28;20428;-65
2021/08/29 10:07:17;;;;;;;3.10;2.80;;;22.90;99.90;;;;;;5116296;28;20509;-65
2021/08/29 10:09:44;;;;;;;4.23;2.90;;;22.90;99.90;;;;;;5115962;28;20438;-65
2021/08/29 10:12:10;;;;;;;3.40;3.10;;;22.90;99.90;;;;;;5115696;28;20412;-66
2021/08/29 10:14:38;;;;;;;2.67;2.43;;;23.00;99.90;;;;;;5114486;28;20535;-65
2021/08/29 10:17:07;;;;;;;2.27;2.10;;;23.00;99.90;;;;;;5114600;28;20183;-65
2021/08/29 10:19:35;;;;;;;2.63;2.43;;;23.10;99.90;;;;;;5115600;28;20447;-67
2021/08/29 10:22:01;;;;;;;3.23;2.60;;;23.10;99.90;;;;;;5116025;28;20769;-65
2021/08/29 10:24:32;;;;;;;3.30;2.70;;;23.10;99.90;;;;;;5115627;28;20886;-66
2021/08/29 10:27:08;;;;;;;3.80;3.43;;;23.10;99.90;;;;;;5115407;28;20490;-65
2021/08/29 10:29:49;;;;;;;4.00;3.60;;;23.00;99.90;;;;;;5115571;28;20533;-65
2021/08/29 10:32:44;;;;;;;3.00;2.70;;;23.00;99.90;;;;;;5115918;28;20423;-65
2021/08/29 10:35:10;;;;;;;2.50;2.30;;;22.90;99.90;;;;;;5115308;28;20428;-66
2021/08/29 10:37:38;;;;;;;2.87;2.60;;;22.80;99.90;;;;;;5115758;28;20451;-65
2021/08/29 10:40:08;;;;;;;2.13;2.03;;;22.80;99.90;;;;;;5115176;28;20427;-66
2021/08/29 10:42:39;;;;;;;2.80;2.60;;;22.70;99.90;;;;;;5115849;28;20412;-65
2021/08/29 10:45:06;;;;;;;2.50;2.30;;;22.60;99.90;;;;;;5115149;28;20432;-65
2021/08/29 10:47:33;;;;;;;2.70;2.50;;;22.60;99.90;;;;;;5115521;28;20476;-65
2021/08/29 10:50:01;;;;;;;3.10;2.90;;;22.60;99.90;;;;;;5115037;28;20443;-65
2021/08/29 10:52:35;;;;;;;2.77;2.53;;;22.50;99.90;;;;;;5115425;28;20460;-66
2021/08/29 10:55:03;;;;;;;2.70;2.50;;;22.50;99.90;;;;;;5114919;28;20783;-65
2021/08/29 10:57:30;;;;;;;2.23;2.13;;;22.50;99.90;;;;;;5115246;28;20446;-65
2021/08/29 11:00:17;;;;;;;9.43;2.17;;;22.50;99.90;;;;;;5114857;28;20909;-66
2021/08/29 11:02:48;;;;;;;3.07;2.77;;;22.50;99.90;;;;;;5115509;28;20426;-66
2021/08/29 11:05:28;;;;;;;2.20;2.00;;;22.40;99.90;;;;;;5114674;28;20448;-67
2021/08/29 11:07:56;;;;;;;2.03;1.90;;;22.50;99.90;;;;;;5114553;28;20502;-66
2021/08/29 11:10:50;;;;;;;3.17;2.60;;;22.50;99.90;;;;;;5113423;28;20961;-65
2021/08/29 11:13:29;;;;;;;2.63;2.43;;;22.50;99.90;;;;;;5109835;28;20428;-67
2021/08/29 11:16:12;;;;;;;2.73;2.53;;;22.50;99.90;;;;;;5113220;28;20448;-66
2021/08/29 11:19:00;;;;;;;3.27;2.63;;;22.50;99.90;;;;;;5114626;28;20389;-66
2021/08/29 11:21:55;;;;;;;2.53;2.33;;;22.50;99.90;;;;;;5113338;28;20500;-65
2021/08/29 11:24:46;;;;;;;2.77;2.10;;;22.40;99.90;;;;;;5111730;28;20445;-66
2021/08/29 11:27:34;;;;;;;2.53;2.33;;;22.40;99.90;;;;;;5114355;28;20487;-66
2021/08/29 11:30:09;;;;;;;2.60;2.40;;;22.40;99.90;;;;;;5114411;28;20432;-65
2021/08/29 11:32:44;;;;;;;3.03;2.83;;;22.40;99.90;;;;;;5113376;28;20781;-65
2021/08/29 11:35:14;;;;;;;3.10;2.47;;;22.40;99.90;;;;;;5114352;28;20418;-66
2021/08/29 11:37:40;;;;;;;2.43;2.23;;;22.40;99.90;;;;;;5114853;28;20467;-67
2021/08/29 11:40:08;;;;;;;2.63;2.43;;;22.40;99.90;;;;;;5114148;28;20917;-66
2021/08/29 11:42:34;;;;;;;2.80;2.60;;;22.40;99.90;;;;;;5114690;28;20217;-65
2021/08/29 11:45:01;;;;;;;3.30;2.60;;;22.30;99.90;;;;;;5114059;28;20428;-65
2021/08/29 11:47:37;;;;;;;2.40;2.20;;;22.30;99.90;;;;;;5114577;28;20471;-65
2021/08/29 11:50:06;;;;;;;3.10;2.70;;;22.30;99.90;;;;;;5114089;28;20778;-65
2021/08/29 11:52:33;;;;;;;2.50;2.30;;;22.30;99.90;;;;;;5114567;28;20514;-66
2021/08/29 11:55:09;;;;;;;2.53;2.20;;;22.30;99.90;;;;;;5114036;28;20939;-65
2021/08/29 11:57:48;;;;;;;3.40;2.73;;;22.30;99.90;;;;;;5113007;28;20431;-65
2021/08/29 12:00:16;;;;;;;2.53;2.33;;;22.30;99.90;;;;;;5113904;28;20424;-67
2021/08/29 12:02:43;;;;;;;2.50;2.30;;;22.30;99.90;;;;;;5112083;28;20427;-66
2021/08/29 12:05:14;;;;;;;5.00;2.73;;;22.30;99.90;;;;;;5112030;28;20953;-65
2021/08/29 12:07:50;;;;;;;3.07;2.77;;;22.30;99.90;;;;;;5113237;28;20467;-66
2021/08/29 12:10:17;;;;;;;2.57;2.37;;;22.30;99.90;;;;;;5113743;28;20513;-65
2021/08/29 12:12:45;;;;;;;2.53;2.33;;;22.30;99.90;;;;;;5114450;28;20435;-65
2021/08/29 12:15:12;;;;;;;3.20;2.40;;;22.40;99.90;;;;;;5112520;28;20806;-65
2021/08/29 12:17:40;;;;;;;2.77;2.50;;;22.40;99.90;;;;;;5114465;28;20431;-66
2021/08/29 12:20:08;;;;;;;2.17;2.07;;;22.40;99.90;;;;;;5115824;28;20435;-65
2021/08/29 12:22:37;;;;;;;2.20;1.93;;;22.40;99.90;;;;;;5118111;28;20452;-65
2021/08/29 12:25:04;;;;;;;2.40;2.20;;;22.40;99.90;;;;;;5117726;28;20450;-65
2021/08/29 12:27:30;;;;;;;2.40;2.20;;;22.40;99.90;;;;;;5150482;27;20502;-65
2021/08/29 12:30:00;;;;;;;1.97;1.83;;;22.40;99.90;;;;;;5115909;28;20519;-65
2021/08/29 12:32:34;;;;;;;2.37;2.20;;;22.40;99.90;;;;;;5116279;28;20419;-65
2021/08/29 12:35:06;;;;;;;2.13;2.00;;;22.40;99.90;;;;;;5115475;28;20431;-66
2021/08/29 12:37:34;;;;;;;2.40;2.20;;;22.40;99.90;;;;;;5116011;28;20460;-65
2021/08/29 12:40:09;;;;;;;2.23;2.03;;;22.50;99.90;;;;;;5148493;27;20957;-65
2021/08/29 12:42:40;;;;;;;2.30;2.10;;;22.60;99.90;;;;;;5115896;28;20413;-66
2021/08/29 12:45:09;;;;;;;2.10;2.00;;;22.70;99.90;;;;;;5114385;28;20488;-65
2021/08/29 12:47:35;;;;;;;2.33;2.13;;;22.80;99.90;;;;;;5149568;27;20528;-65
2021/08/29 12:50:03;;;;;;;3.10;2.20;;;22.80;99.90;;;;;;5117475;28;20992;-66
2021/08/29 12:52:40;;;;;;;2.73;2.13;;;22.90;99.90;;;;;;5117864;28;20910;-66